sensor_id;sensor_type;location;lat;lon;timestamp;P1;durP1;ratioP1;P2;durP2;ratioP2
76121;SDS011;70471;53.200;6.080;2023-10-19T00:06:05;1.10;;;0.82;;
76121;SDS011;70471;53.200;6.080;2023-10-19T00:15:53;2.22;;;0.88;;
76121;SDS011;70471;53.200;6.080;2023-10-19T00:20:45;0.80;;;0.80;;
76121;SDS011;70471;53.200;6.080;2023-10-19T00:25:41;1.13;;;0.80;;
76121;SDS011;70471;53.200;6.080;2023-10-19T00:30:35;0.93;;;0.80;;
76121;SDS011;70471;53.200;6.080;2023-10-19T00:35:27;1.10;;;0.80;;
76121;SDS011;70471;53.200;6.080;2023-10-19T00:40:24;1.10;;;0.85;;
76121;SDS011;70471;53.200;6.080;2023-10-19T00:45:25;1.55;;;0.90;;
76121;SDS011;70471;53.200;6.080;2023-10-19T00:50:19;1.08;;;0.90;;
76121;SDS011;70471;53.200;6.080;2023-10-19T00:55:13;1.30;;;0.93;;
76121;SDS011;70471;53.200;6.080;2023-10-19T01:00:06;1.42;;;1.10;;
76121;SDS011;70471;53.200;6.080;2023-10-19T01:05:02;2.35;;;1.20;;
76121;SDS011;70471;53.200;6.080;2023-10-19T01:09:58;1.88;;;1.15;;
76121;SDS011;70471;53.200;6.080;2023-10-19T01:15:00;1.90;;;1.10;;
76121;SDS011;70471;53.200;6.080;2023-10-19T01:19:55;1.13;;;0.95;;
76121;SDS011;70471;53.200;6.080;2023-10-19T01:24:50;1.27;;;0.93;;
76121;SDS011;70471;53.200;6.080;2023-10-19T01:29:43;1.48;;;0.75;;
76121;SDS011;70471;53.200;6.080;2023-10-19T01:39:27;0.93;;;0.80;;
76121;SDS011;70471;53.200;6.080;2023-10-19T01:44:20;2.63;;;1.42;;
76121;SDS011;70471;53.200;6.080;2023-10-19T01:49:11;1.30;;;1.20;;
76121;SDS011;70471;53.200;6.080;2023-10-19T01:54:03;1.48;;;1.02;;
76121;SDS011;70471;53.200;6.080;2023-10-19T01:58:56;1.20;;;1.10;;
76121;SDS011;70471;53.200;6.080;2023-10-19T02:03:50;1.75;;;1.30;;
76121;SDS011;70471;53.200;6.080;2023-10-19T02:08:48;1.50;;;0.98;;
76121;SDS011;70471;53.200;6.080;2023-10-19T02:13:41;1.35;;;1.00;;
76121;SDS011;70471;53.200;6.080;2023-10-19T02:18:33;1.35;;;1.05;;
76121;SDS011;70471;53.200;6.080;2023-10-19T02:23:26;1.90;;;1.10;;
76121;SDS011;70471;53.200;6.080;2023-10-19T02:28:18;1.63;;;1.02;;
76121;SDS011;70471;53.200;6.080;2023-10-19T02:33:15;1.00;;;0.88;;
76121;SDS011;70471;53.200;6.080;2023-10-19T02:43:00;1.40;;;1.25;;
76121;SDS011;70471;53.200;6.080;2023-10-19T02:47:53;1.38;;;0.90;;
76121;SDS011;70471;53.200;6.080;2023-10-19T02:52:46;1.10;;;0.80;;
76121;SDS011;70471;53.200;6.080;2023-10-19T02:57:38;0.70;;;0.70;;
76121;SDS011;70471;53.200;6.080;2023-10-19T03:07:22;1.52;;;0.90;;
76121;SDS011;70471;53.200;6.080;2023-10-19T03:12:14;0.80;;;0.60;;
76121;SDS011;70471;53.200;6.080;2023-10-19T03:22:00;1.00;;;0.70;;
76121;SDS011;70471;53.200;6.080;2023-10-19T03:26:51;1.25;;;0.90;;
76121;SDS011;70471;53.200;6.080;2023-10-19T03:31:44;0.75;;;0.73;;
76121;SDS011;70471;53.200;6.080;2023-10-19T03:36:37;0.50;;;0.47;;
76121;SDS011;70471;53.200;6.080;2023-10-19T03:46:25;1.10;;;0.82;;
76121;SDS011;70471;53.200;6.080;2023-10-19T03:51:20;1.45;;;0.98;;
76121;SDS011;70471;53.200;6.080;2023-10-19T03:56:15;0.70;;;0.70;;
76121;SDS011;70471;53.200;6.080;2023-10-19T04:01:08;0.70;;;0.60;;
76121;SDS011;70471;53.200;6.080;2023-10-19T04:06:00;0.60;;;0.50;;
76121;SDS011;70471;53.200;6.080;2023-10-19T04:10:55;0.85;;;0.70;;
76121;SDS011;70471;53.200;6.080;2023-10-19T04:15:59;0.65;;;0.60;;
76121;SDS011;70471;53.200;6.080;2023-10-19T04:20:51;0.80;;;0.70;;
76121;SDS011;70471;53.200;6.080;2023-10-19T04:30:39;0.60;;;0.60;;
76121;SDS011;70471;53.200;6.080;2023-10-19T04:35:30;0.70;;;0.70;;
76121;SDS011;70471;53.200;6.080;2023-10-19T04:40:25;0.50;;;0.50;;
76121;SDS011;70471;53.200;6.080;2023-10-19T04:45:17;0.93;;;0.45;;
76121;SDS011;70471;53.200;6.080;2023-10-19T04:50:09;0.45;;;0.35;;
76121;SDS011;70471;53.200;6.080;2023-10-19T04:55:01;0.52;;;0.47;;
76121;SDS011;70471;53.200;6.080;2023-10-19T04:59:55;0.60;;;0.60;;
76121;SDS011;70471;53.200;6.080;2023-10-19T05:04:46;0.45;;;0.30;;
76121;SDS011;70471;53.200;6.080;2023-10-19T05:09:38;0.32;;;0.32;;
76121;SDS011;70471;53.200;6.080;2023-10-19T05:19:22;0.22;;;0.20;;
76121;SDS011;70471;53.200;6.080;2023-10-19T05:24:14;1.00;;;0.45;;
76121;SDS011;70471;53.200;6.080;2023-10-19T05:29:05;0.55;;;0.30;;
76121;SDS011;70471;53.200;6.080;2023-10-19T05:38:49;0.30;;;0.30;;
76121;SDS011;70471;53.200;6.080;2023-10-19T05:43:41;0.40;;;0.30;;
76121;SDS011;70471;53.200;6.080;2023-10-19T05:48:33;0.32;;;0.20;;
76121;SDS011;70471;53.200;6.080;2023-10-19T05:58:17;0.38;;;0.20;;
76121;SDS011;70471;53.200;6.080;2023-10-19T06:03:10;0.20;;;0.20;;
76121;SDS011;70471;53.200;6.080;2023-10-19T06:12:54;0.30;;;0.20;;
76121;SDS011;70471;53.200;6.080;2023-10-19T06:17:48;0.20;;;0.20;;
76121;SDS011;70471;53.200;6.080;2023-10-19T06:22:40;0.30;;;0.30;;
76121;SDS011;70471;53.200;6.080;2023-10-19T06:32:23;0.20;;;0.20;;
76121;SDS011;70471;53.200;6.080;2023-10-19T06:42:07;0.28;;;0.20;;
76121;SDS011;70471;53.200;6.080;2023-10-19T06:47:03;0.68;;;0.38;;
76121;SDS011;70471;53.200;6.080;2023-10-19T06:51:56;0.15;;;0.10;;
76121;SDS011;70471;53.200;6.080;2023-10-19T06:56:50;0.75;;;0.20;;
76121;SDS011;70471;53.200;6.080;2023-10-19T07:01:41;0.10;;;0.10;;
76121;SDS011;70471;53.200;6.080;2023-10-19T07:11:25;1.05;;;0.22;;
76121;SDS011;70471;53.200;6.080;2023-10-19T07:16:18;0.52;;;0.40;;
76121;SDS011;70471;53.200;6.080;2023-10-19T07:21:10;0.40;;;0.20;;
76121;SDS011;70471;53.200;6.080;2023-10-19T07:26:02;0.20;;;0.20;;
76121;SDS011;70471;53.200;6.080;2023-10-19T07:30:53;0.00;;;0.00;;
76121;SDS011;70471;53.200;6.080;2023-10-19T07:35:47;0.20;;;0.20;;
76121;SDS011;70471;53.200;6.080;2023-10-19T07:40:43;0.30;;;0.10;;
76121;SDS011;70471;53.200;6.080;2023-10-19T07:45:34;0.25;;;0.10;;
76121;SDS011;70471;53.200;6.080;2023-10-19T07:50:26;0.10;;;0.10;;
76121;SDS011;70471;53.200;6.080;2023-10-19T07:55:20;0.20;;;0.20;;
76121;SDS011;70471;53.200;6.080;2023-10-19T08:00:14;0.17;;;0.10;;
76121;SDS011;70471;53.200;6.080;2023-10-19T08:05:07;1.33;;;0.52;;
76121;SDS011;70471;53.200;6.080;2023-10-19T08:10:01;0.60;;;0.20;;
76121;SDS011;70471;53.200;6.080;2023-10-19T08:14:56;0.10;;;0.10;;
76121;SDS011;70471;53.200;6.080;2023-10-19T08:19:48;0.25;;;0.20;;
76121;SDS011;70471;53.200;6.080;2023-10-19T08:24:40;0.28;;;0.20;;
76121;SDS011;70471;53.200;6.080;2023-10-19T08:29:33;0.20;;;0.15;;
76121;SDS011;70471;53.200;6.080;2023-10-19T08:34:26;0.30;;;0.22;;
76121;SDS011;70471;53.200;6.080;2023-10-19T08:39:19;0.10;;;0.10;;
76121;SDS011;70471;53.200;6.080;2023-10-19T08:44:11;0.22;;;0.10;;
76121;SDS011;70471;53.200;6.080;2023-10-19T08:49:05;0.10;;;0.10;;
76121;SDS011;70471;53.200;6.080;2023-10-19T08:54:01;0.45;;;0.10;;
76121;SDS011;70471;53.200;6.080;2023-10-19T08:58:55;0.38;;;0.10;;
76121;SDS011;70471;53.200;6.080;2023-10-19T09:03:47;1.30;;;0.30;;
76121;SDS011;70471;53.200;6.080;2023-10-19T09:13:34;0.10;;;0.10;;
76121;SDS011;70471;53.200;6.080;2023-10-19T09:18:34;0.20;;;0.10;;
76121;SDS011;70471;53.200;6.080;2023-10-19T09:23:26;0.45;;;0.10;;
76121;SDS011;70471;53.200;6.080;2023-10-19T09:28:18;0.25;;;0.13;;
76121;SDS011;70471;53.200;6.080;2023-10-19T09:38:04;0.20;;;0.20;;
76121;SDS011;70471;53.200;6.080;2023-10-19T09:42:56;0.90;;;0.10;;
76121;SDS011;70471;53.200;6.080;2023-10-19T09:47:53;0.17;;;0.13;;
76121;SDS011;70471;53.200;6.080;2023-10-19T09:52:47;0.30;;;0.20;;
76121;SDS011;70471;53.200;6.080;2023-10-19T09:57:43;0.22;;;0.20;;
76121;SDS011;70471;53.200;6.080;2023-10-19T10:02:39;0.30;;;0.15;;
76121;SDS011;70471;53.200;6.080;2023-10-19T10:07:36;0.20;;;0.20;;
76121;SDS011;70471;53.200;6.080;2023-10-19T10:17:20;0.28;;;0.20;;
76121;SDS011;70471;53.200;6.080;2023-10-19T10:22:13;0.30;;;0.30;;
76121;SDS011;70471;53.200;6.080;2023-10-19T10:27:05;0.30;;;0.30;;
76121;SDS011;70471;53.200;6.080;2023-10-19T10:36:59;0.77;;;0.30;;
76121;SDS011;70471;53.200;6.080;2023-10-19T10:41:55;0.65;;;0.30;;
76121;SDS011;70471;53.200;6.080;2023-10-19T10:46:46;0.35;;;0.20;;
76121;SDS011;70471;53.200;6.080;2023-10-19T10:56:31;0.40;;;0.30;;
76121;SDS011;70471;53.200;6.080;2023-10-19T11:01:30;0.32;;;0.28;;
76121;SDS011;70471;53.200;6.080;2023-10-19T11:06:23;0.32;;;0.30;;
76121;SDS011;70471;53.200;6.080;2023-10-19T11:16:07;0.63;;;0.40;;
76121;SDS011;70471;53.200;6.080;2023-10-19T11:21:00;0.25;;;0.10;;
76121;SDS011;70471;53.200;6.080;2023-10-19T11:25:57;0.55;;;0.40;;
76121;SDS011;70471;53.200;6.080;2023-10-19T11:30:50;0.63;;;0.40;;
76121;SDS011;70471;53.200;6.080;2023-10-19T11:35:41;0.50;;;0.30;;
76121;SDS011;70471;53.200;6.080;2023-10-19T11:45:24;0.38;;;0.35;;
76121;SDS011;70471;53.200;6.080;2023-10-19T11:55:09;0.60;;;0.60;;
76121;SDS011;70471;53.200;6.080;2023-10-19T12:04:58;1.08;;;0.80;;
76121;SDS011;70471;53.200;6.080;2023-10-19T12:09:51;1.38;;;0.70;;
76121;SDS011;70471;53.200;6.080;2023-10-19T12:14:43;1.10;;;0.82;;
76121;SDS011;70471;53.200;6.080;2023-10-19T12:19:34;1.40;;;0.68;;
76121;SDS011;70471;53.200;6.080;2023-10-19T12:29:20;0.90;;;0.70;;
76121;SDS011;70471;53.200;6.080;2023-10-19T12:34:11;1.17;;;0.82;;
76121;SDS011;70471;53.200;6.080;2023-10-19T12:43:56;7.15;;;1.30;;
76121;SDS011;70471;53.200;6.080;2023-10-19T12:48:50;0.80;;;0.40;;
76121;SDS011;70471;53.200;6.080;2023-10-19T12:53:41;1.42;;;0.93;;
76121;SDS011;70471;53.200;6.080;2023-10-19T12:58:37;0.50;;;0.40;;
76121;SDS011;70471;53.200;6.080;2023-10-19T13:03:28;0.75;;;0.40;;
76121;SDS011;70471;53.200;6.080;2023-10-19T13:08:23;0.90;;;0.57;;
76121;SDS011;70471;53.200;6.080;2023-10-19T13:13:17;0.40;;;0.30;;
76121;SDS011;70471;53.200;6.080;2023-10-19T13:18:09;6.47;;;0.63;;
76121;SDS011;70471;53.200;6.080;2023-10-19T13:23:01;0.98;;;0.50;;
76121;SDS011;70471;53.200;6.080;2023-10-19T13:27:55;0.93;;;0.40;;
76121;SDS011;70471;53.200;6.080;2023-10-19T13:32:46;1.05;;;0.57;;
76121;SDS011;70471;53.200;6.080;2023-10-19T13:37:39;0.50;;;0.50;;
76121;SDS011;70471;53.200;6.080;2023-10-19T13:47:23;1.35;;;0.50;;
76121;SDS011;70471;53.200;6.080;2023-10-19T13:52:14;1.42;;;0.50;;
76121;SDS011;70471;53.200;6.080;2023-10-19T14:01:57;0.43;;;0.40;;
76121;SDS011;70471;53.200;6.080;2023-10-19T14:06:50;0.50;;;0.50;;
76121;SDS011;70471;53.200;6.080;2023-10-19T14:11:42;0.65;;;0.47;;
76121;SDS011;70471;53.200;6.080;2023-10-19T14:16:34;1.00;;;0.60;;
76121;SDS011;70471;53.200;6.080;2023-10-19T14:26:19;1.00;;;0.70;;
76121;SDS011;70471;53.200;6.080;2023-10-19T14:31:11;1.30;;;0.70;;
76121;SDS011;70471;53.200;6.080;2023-10-19T14:36:03;0.77;;;0.50;;
76121;SDS011;70471;53.200;6.080;2023-10-19T14:40:55;0.95;;;0.60;;
76121;SDS011;70471;53.200;6.080;2023-10-19T14:45:48;1.10;;;0.93;;
76121;SDS011;70471;53.200;6.080;2023-10-19T14:50:41;0.65;;;0.57;;
76121;SDS011;70471;53.200;6.080;2023-10-19T14:55:33;0.77;;;0.47;;
76121;SDS011;70471;53.200;6.080;2023-10-19T15:00:26;0.70;;;0.63;;
76121;SDS011;70471;53.200;6.080;2023-10-19T15:05:24;0.90;;;0.60;;
76121;SDS011;70471;53.200;6.080;2023-10-19T15:10:18;0.63;;;0.50;;
76121;SDS011;70471;53.200;6.080;2023-10-19T15:15:11;0.90;;;0.57;;
76121;SDS011;70471;53.200;6.080;2023-10-19T15:20:04;1.40;;;0.70;;
76121;SDS011;70471;53.200;6.080;2023-10-19T15:24:58;1.00;;;0.85;;
76121;SDS011;70471;53.200;6.080;2023-10-19T15:29:50;0.88;;;0.80;;
76121;SDS011;70471;53.200;6.080;2023-10-19T15:34:42;0.55;;;0.55;;
76121;SDS011;70471;53.200;6.080;2023-10-19T15:39:34;0.85;;;0.70;;
76121;SDS011;70471;53.200;6.080;2023-10-19T15:44:27;1.08;;;0.68;;
76121;SDS011;70471;53.200;6.080;2023-10-19T15:49:19;0.70;;;0.57;;
76121;SDS011;70471;53.200;6.080;2023-10-19T15:54:11;1.45;;;0.80;;
76121;SDS011;70471;53.200;6.080;2023-10-19T15:59:03;0.55;;;0.50;;
76121;SDS011;70471;53.200;6.080;2023-10-19T16:03:58;0.85;;;0.65;;
76121;SDS011;70471;53.200;6.080;2023-10-19T16:08:49;0.70;;;0.60;;
76121;SDS011;70471;53.200;6.080;2023-10-19T16:13:42;0.45;;;0.40;;
76121;SDS011;70471;53.200;6.080;2023-10-19T16:18:34;0.88;;;0.50;;
76121;SDS011;70471;53.200;6.080;2023-10-19T16:23:27;0.60;;;0.50;;
76121;SDS011;70471;53.200;6.080;2023-10-19T16:28:18;0.40;;;0.32;;
76121;SDS011;70471;53.200;6.080;2023-10-19T16:33:10;1.00;;;0.70;;
76121;SDS011;70471;53.200;6.080;2023-10-19T16:42:54;0.32;;;0.30;;
76121;SDS011;70471;53.200;6.080;2023-10-19T16:47:46;0.88;;;0.50;;
76121;SDS011;70471;53.200;6.080;2023-10-19T16:57:28;0.95;;;0.60;;
76121;SDS011;70471;53.200;6.080;2023-10-19T17:02:21;0.70;;;0.50;;
76121;SDS011;70471;53.200;6.080;2023-10-19T17:07:14;0.80;;;0.60;;
76121;SDS011;70471;53.200;6.080;2023-10-19T17:12:06;1.52;;;0.50;;
76121;SDS011;70471;53.200;6.080;2023-10-19T17:16:58;0.77;;;0.50;;
76121;SDS011;70471;53.200;6.080;2023-10-19T17:21:52;0.73;;;0.43;;
76121;SDS011;70471;53.200;6.080;2023-10-19T17:26:43;0.80;;;0.50;;
76121;SDS011;70471;53.200;6.080;2023-10-19T17:31:35;0.90;;;0.50;;
76121;SDS011;70471;53.200;6.080;2023-10-19T17:36:27;0.95;;;0.55;;
76121;SDS011;70471;53.200;6.080;2023-10-19T17:46:11;0.57;;;0.38;;
76121;SDS011;70471;53.200;6.080;2023-10-19T17:51:08;0.95;;;0.68;;
76121;SDS011;70471;53.200;6.080;2023-10-19T17:56:00;1.00;;;0.57;;
76121;SDS011;70471;53.200;6.080;2023-10-19T18:00:53;0.60;;;0.43;;
76121;SDS011;70471;53.200;6.080;2023-10-19T18:05:45;0.70;;;0.52;;
76121;SDS011;70471;53.200;6.080;2023-10-19T18:10:37;0.55;;;0.40;;
76121;SDS011;70471;53.200;6.080;2023-10-19T18:15:30;1.05;;;0.40;;
76121;SDS011;70471;53.200;6.080;2023-10-19T18:20:23;0.93;;;0.40;;
76121;SDS011;70471;53.200;6.080;2023-10-19T18:25:16;1.67;;;0.68;;
76121;SDS011;70471;53.200;6.080;2023-10-19T18:30:09;1.13;;;0.52;;
76121;SDS011;70471;53.200;6.080;2023-10-19T18:35:02;0.80;;;0.35;;
76121;SDS011;70471;53.200;6.080;2023-10-19T18:39:56;0.80;;;0.50;;
76121;SDS011;70471;53.200;6.080;2023-10-19T18:44:47;0.35;;;0.35;;
76121;SDS011;70471;53.200;6.080;2023-10-19T18:49:39;0.90;;;0.50;;
76121;SDS011;70471;53.200;6.080;2023-10-19T18:54:32;0.50;;;0.40;;
76121;SDS011;70471;53.200;6.080;2023-10-19T18:59:25;0.35;;;0.32;;
76121;SDS011;70471;53.200;6.080;2023-10-19T19:04:16;0.52;;;0.50;;
76121;SDS011;70471;53.200;6.080;2023-10-19T19:09:08;1.02;;;0.60;;
76121;SDS011;70471;53.200;6.080;2023-10-19T19:14:01;0.40;;;0.40;;
76121;SDS011;70471;53.200;6.080;2023-10-19T19:18:54;0.68;;;0.43;;
76121;SDS011;70471;53.200;6.080;2023-10-19T19:23:46;1.38;;;0.57;;
76121;SDS011;70471;53.200;6.080;2023-10-19T19:28:37;0.40;;;0.40;;
76121;SDS011;70471;53.200;6.080;2023-10-19T19:33:32;0.60;;;0.35;;
76121;SDS011;70471;53.200;6.080;2023-10-19T19:43:16;0.68;;;0.50;;
76121;SDS011;70471;53.200;6.080;2023-10-19T19:48:09;1.13;;;0.68;;
76121;SDS011;70471;53.200;6.080;2023-10-19T19:53:01;0.60;;;0.60;;
76121;SDS011;70471;53.200;6.080;2023-10-19T20:02:45;0.98;;;0.43;;
76121;SDS011;70471;53.200;6.080;2023-10-19T20:07:37;0.82;;;0.52;;
76121;SDS011;70471;53.200;6.080;2023-10-19T20:12:29;0.70;;;0.50;;
76121;SDS011;70471;53.200;6.080;2023-10-19T20:17:22;2.08;;;0.40;;
76121;SDS011;70471;53.200;6.080;2023-10-19T20:22:13;1.48;;;0.80;;
76121;SDS011;70471;53.200;6.080;2023-10-19T20:27:06;1.17;;;0.50;;
76121;SDS011;70471;53.200;6.080;2023-10-19T20:36:50;0.68;;;0.50;;
76121;SDS011;70471;53.200;6.080;2023-10-19T20:41:42;1.15;;;0.50;;
76121;SDS011;70471;53.200;6.080;2023-10-19T20:46:34;0.80;;;0.52;;
76121;SDS011;70471;53.200;6.080;2023-10-19T20:56:18;0.85;;;0.70;;
76121;SDS011;70471;53.200;6.080;2023-10-19T21:01:09;0.65;;;0.50;;
76121;SDS011;70471;53.200;6.080;2023-10-19T21:06:09;1.58;;;0.85;;
76121;SDS011;70471;53.200;6.080;2023-10-19T21:11:01;0.95;;;0.70;;
76121;SDS011;70471;53.200;6.080;2023-10-19T21:20:46;1.02;;;0.70;;
76121;SDS011;70471;53.200;6.080;2023-10-19T21:25:38;0.85;;;0.70;;
76121;SDS011;70471;53.200;6.080;2023-10-19T21:35:22;0.80;;;0.60;;
76121;SDS011;70471;53.200;6.080;2023-10-19T21:40:14;0.60;;;0.40;;
76121;SDS011;70471;53.200;6.080;2023-10-19T21:49:57;0.82;;;0.80;;
76121;SDS011;70471;53.200;6.080;2023-10-19T21:54:50;1.40;;;0.93;;
76121;SDS011;70471;53.200;6.080;2023-10-19T21:59:42;1.13;;;0.80;;
76121;SDS011;70471;53.200;6.080;2023-10-19T22:04:34;1.30;;;1.20;;
76121;SDS011;70471;53.200;6.080;2023-10-19T22:14:19;0.60;;;0.60;;
76121;SDS011;70471;53.200;6.080;2023-10-19T22:19:11;1.13;;;1.05;;
76121;SDS011;70471;53.200;6.080;2023-10-19T22:24:02;1.10;;;0.90;;
76121;SDS011;70471;53.200;6.080;2023-10-19T22:28:54;1.00;;;0.80;;
76121;SDS011;70471;53.200;6.080;2023-10-19T22:33:47;1.10;;;0.80;;
76121;SDS011;70471;53.200;6.080;2023-10-19T22:38:38;0.88;;;0.70;;
76121;SDS011;70471;53.200;6.080;2023-10-19T22:48:22;2.05;;;1.05;;
76121;SDS011;70471;53.200;6.080;2023-10-19T22:53:16;1.00;;;0.90;;
76121;SDS011;70471;53.200;6.080;2023-10-19T22:58:08;0.98;;;0.70;;
76121;SDS011;70471;53.200;6.080;2023-10-19T23:03:00;1.90;;;1.00;;
76121;SDS011;70471;53.200;6.080;2023-10-19T23:12:45;1.73;;;1.10;;
76121;SDS011;70471;53.200;6.080;2023-10-19T23:17:37;2.47;;;1.10;;
76121;SDS011;70471;53.200;6.080;2023-10-19T23:22:32;0.85;;;0.70;;
76121;SDS011;70471;53.200;6.080;2023-10-19T23:27:25;1.17;;;0.98;;
76121;SDS011;70471;53.200;6.080;2023-10-19T23:32:21;1.42;;;1.20;;
76121;SDS011;70471;53.200;6.080;2023-10-19T23:37:12;1.65;;;1.02;;
76121;SDS011;70471;53.200;6.080;2023-10-19T23:42:04;1.55;;;0.90;;
76121;SDS011;70471;53.200;6.080;2023-10-19T23:46:56;1.98;;;1.00;;
76121;SDS011;70471;53.200;6.080;2023-10-19T23:51:49;1.48;;;0.95;;
76121;SDS011;70471;53.200;6.080;2023-10-19T23:56:41;1.33;;;0.85;;
